Time;durP1;ratioP1;P1;durP2;ratioP2;P2;SDS_P1;SDS_P2;PMS_P1;PMS_P2;Temp;Humidity;BMP_temperature;BMP_pressure;BME280_temperature;BME280_humidity;BME280_pressure;Samples;Min_cycle;Max_cycle;Signal;HPM_P1;HPM_P2
2023/10/06 00:02:31;;;;;;;12.63;8.30;;;;;;;;;;13148001;22;20351;-90
2023/10/06 00:07:33;;;;;;;12.10;7.87;;;;;;;;;;13149652;22;20359;-91
2023/10/06 00:12:35;;;;;;;12.70;8.68;;;;;;;;;;13127244;22;20379;-91
2023/10/06 00:17:48;;;;;;;13.55;7.95;;;;;;;;;;13149630;22;20356;-91
2023/10/06 00:22:54;;;;;;;12.90;7.78;;;;;;;;;;13147179;22;20347;-90
2023/10/06 00:27:56;;;;;;;12.63;8.57;;;;;;;;;;13124145;22;20428;-91
2023/10/06 00:33:05;;;;;;;12.65;8.55;;;;;;;;;;13125119;22;20429;-90
2023/10/06 00:38:13;;;;;;;10.95;7.90;;;;;;;;;;13125843;22;20359;-91
2023/10/06 00:43:20;;;;;;;13.13;8.38;;;;;;;;;;13124420;22;20351;-91
2023/10/06 00:48:25;;;;;;;12.32;8.02;;;;;;;;;;13125792;22;20374;-92
2023/10/06 00:53:31;;;;;;;12.40;7.57;;;;;;;;;;13146816;22;20695;-90
2023/10/06 00:58:34;;;;;;;14.48;8.32;;;;;;;;;;13125098;22;20359;-91
2023/10/06 01:03:39;;;;;;;12.65;8.27;;;;;;;;;;13125845;22;20429;-91
2023/10/06 01:08:45;;;;;;;13.33;8.27;;;;;;;;;;13124770;22;20401;-91
2023/10/06 01:13:55;;;;;;;11.63;7.57;;;;;;;;;;13123453;22;20375;-91
2023/10/06 01:19:14;;;;;;;11.52;7.80;;;;;;;;;;13146017;22;20420;-91
2023/10/06 01:24:23;;;;;;;13.35;8.98;;;;;;;;;;13123289;22;20351;-91
2023/10/06 01:29:29;;;;;;;12.25;7.97;;;;;;;;;;13124539;22;20359;-91
2023/10/06 01:34:35;;;;;;;13.97;8.77;;;;;;;;;;13124167;22;20387;-91
2023/10/06 01:39:39;;;;;;;13.23;8.05;;;;;;;;;;13127688;22;20389;-90
2023/10/06 01:44:41;;;;;;;13.63;8.05;;;;;;;;;;13126649;22;20363;-90
2023/10/06 01:49:44;;;;;;;12.00;7.93;;;;;;;;;;13124712;22;20359;-91
2023/10/06 01:54:48;;;;;;;11.52;7.40;;;;;;;;;;13127681;22;20375;-90
2023/10/06 01:59:51;;;;;;;12.23;7.40;;;;;;;;;;13124623;22;20859;-91
2023/10/06 02:04:57;;;;;;;9.27;6.43;;;;;;;;;;13127050;22;20359;-91
2023/10/06 02:10:00;;;;;;;9.93;6.73;;;;;;;;;;13128135;22;20496;-91
2023/10/06 02:15:10;;;;;;;11.25;6.60;;;;;;;;;;13128799;22;20409;-90
2023/10/06 02:20:28;;;;;;;10.98;6.70;;;;;;;;;;13127603;22;20363;-91
2023/10/06 02:25:32;;;;;;;10.75;6.40;;;;;;;;;;13127627;22;20355;-91
2023/10/06 02:30:37;;;;;;;10.27;6.72;;;;;;;;;;13149958;22;20733;-91
2023/10/06 02:35:45;;;;;;;12.10;6.78;;;;;;;;;;13127500;22;20363;-90
2023/10/06 02:40:49;;;;;;;9.88;6.88;;;;;;;;;;13126680;22;20676;-91
2023/10/06 02:45:51;;;;;;;10.23;6.70;;;;;;;;;;13127589;22;20363;-90
2023/10/06 02:50:55;;;;;;;10.75;6.15;;;;;;;;;;13127245;22;20367;-91
2023/10/06 02:56:07;;;;;;;11.90;6.60;;;;;;;;;;13126636;22;20407;-92
2023/10/06 03:01:11;;;;;;;11.07;6.93;;;;;;;;;;13126548;22;20389;-91
2023/10/06 03:06:17;;;;;;;10.60;6.53;;;;;;;;;;13124277;22;20359;-91
2023/10/06 03:11:23;;;;;;;9.95;5.70;;;;;;;;;;13147806;22;20363;-91
2023/10/06 03:16:26;;;;;;;10.00;6.47;;;;;;;;;;13148090;22;20876;-91
2023/10/06 03:21:30;;;;;;;9.10;6.25;;;;;;;;;;13147350;22;20363;-91
2023/10/06 03:26:35;;;;;;;9.48;6.07;;;;;;;;;;13126558;22;20359;-91
2023/10/06 03:31:45;;;;;;;11.10;6.50;;;;;;;;;;13127055;22;20376;-91
2023/10/06 03:36:51;;;;;;;10.50;6.82;;;;;;;;;;13147896;22;20904;-91
2023/10/06 03:42:00;;;;;;;9.87;6.33;;;;;;;;;;13126551;22;20359;-90
2023/10/06 03:47:07;;;;;;;8.57;6.07;;;;;;;;;;13126651;22;20359;-91
2023/10/06 03:52:10;;;;;;;8.63;5.78;;;;;;;;;;13147930;22;20453;-91
2023/10/06 03:57:15;;;;;;;10.38;6.15;;;;;;;;;;13125664;22;20394;-92
2023/10/06 04:02:19;;;;;;;9.60;6.40;;;;;;;;;;13125512;22;20418;-91
2023/10/06 04:07:23;;;;;;;9.93;6.15;;;;;;;;;;13125783;22;20392;-92
2023/10/06 04:12:27;;;;;;;9.95;5.95;;;;;;;;;;13126458;22;20751;-91
2023/10/06 04:17:30;;;;;;;7.67;5.87;;;;;;;;;;13127641;22;20390;-91
2023/10/06 04:22:36;;;;;;;10.25;6.05;;;;;;;;;;13125829;22;20360;-91
2023/10/06 04:27:40;;;;;;;8.50;5.40;;;;;;;;;;13126495;22;20359;-92
2023/10/06 04:32:42;;;;;;;9.07;5.65;;;;;;;;;;13128418;22;20448;-92
2023/10/06 04:37:46;;;;;;;8.07;5.38;;;;;;;;;;13149814;22;20420;-90
2023/10/06 04:42:50;;;;;;;8.45;5.47;;;;;;;;;;13145902;22;20408;-88
2023/10/06 04:47:55;;;;;;;9.50;5.45;;;;;;;;;;13113552;22;20367;-92
2023/10/06 04:52:58;;;;;;;9.90;5.27;;;;;;;;;;13115039;22;20379;-92
2023/10/06 04:58:02;;;;;;;9.10;5.30;;;;;;;;;;13124914;22;20419;-92
2023/10/06 05:03:06;;;;;;;8.83;5.50;;;;;;;;;;13124621;22;20363;-91
2023/10/06 05:08:09;;;;;;;8.25;5.82;;;;;;;;;;13146113;22;20351;-91
2023/10/06 05:13:14;;;;;;;10.15;6.10;;;;;;;;;;13127601;22;20432;-92
2023/10/06 05:18:16;;;;;;;10.82;6.32;;;;;;;;;;13129746;22;21060;-92
2023/10/06 05:23:20;;;;;;;9.73;5.88;;;;;;;;;;13149997;22;20359;-92
2023/10/06 05:28:26;;;;;;;11.07;6.18;;;;;;;;;;13123447;22;20355;-90
2023/10/06 05:33:29;;;;;;;9.45;6.32;;;;;;;;;;13121909;22;20383;-89
2023/10/06 05:38:33;;;;;;;11.40;6.40;;;;;;;;;;13122072;22;20401;-90
2023/10/06 05:43:37;;;;;;;10.63;5.93;;;;;;;;;;13121659;22;20393;-90
2023/10/06 05:48:39;;;;;;;9.98;5.88;;;;;;;;;;13121558;22;20359;-90
2023/10/06 05:53:43;;;;;;;11.30;5.95;;;;;;;;;;13118711;22;20386;-90
2023/10/06 05:58:47;;;;;;;8.23;5.47;;;;;;;;;;13121400;22;20355;-90
2023/10/06 06:03:51;;;;;;;9.85;5.70;;;;;;;;;;13119561;22;20356;-89
2023/10/06 06:08:55;;;;;;;10.77;6.27;;;;;;;;;;13120141;22;20393;-91
2023/10/06 06:13:59;;;;;;;9.52;6.07;;;;;;;;;;13144902;22;20900;-90
2023/10/06 06:19:05;;;;;;;9.50;6.38;;;;;;;;;;13125538;22;20363;-91
2023/10/06 06:24:08;;;;;;;9.93;6.63;;;;;;;;;;13125837;22;20355;-91
2023/10/06 06:29:12;;;;;;;13.15;6.55;;;;;;;;;;13125628;22;20359;-90
2023/10/06 06:34:14;;;;;;;12.35;6.85;;;;;;;;;;13115660;22;20672;-91
2023/10/06 06:39:17;;;;;;;10.57;6.93;;;;;;;;;;13117270;22;20364;-91
2023/10/06 06:44:21;;;;;;;10.60;6.90;;;;;;;;;;13116301;22;20359;-90
2023/10/06 06:49:24;;;;;;;10.75;6.75;;;;;;;;;;13120857;22;20367;-91
2023/10/06 06:54:26;;;;;;;10.20;6.63;;;;;;;;;;13116472;22;20375;-92
2023/10/06 06:59:31;;;;;;;10.73;6.68;;;;;;;;;;13113396;22;20367;-91
2023/10/06 07:04:33;;;;;;;14.18;6.53;;;;;;;;;;13115000;22;20359;-92
2023/10/06 07:09:35;;;;;;;12.13;6.50;;;;;;;;;;13116089;22;20359;-91
2023/10/06 07:14:39;;;;;;;8.55;6.03;;;;;;;;;;13113890;22;20409;-92
2023/10/06 07:19:42;;;;;;;7.78;5.30;;;;;;;;;;13114037;22;20389;-92
2023/10/06 07:24:47;;;;;;;8.48;5.70;;;;;;;;;;13135914;22;20408;-91
2023/10/06 07:29:54;;;;;;;9.97;5.97;;;;;;;;;;13136787;22;20351;-84
2023/10/06 07:34:57;;;;;;;8.98;5.93;;;;;;;;;;13113413;22;20929;-92
2023/10/06 07:40:02;;;;;;;9.13;5.80;;;;;;;;;;13112271;22;20416;-91
2023/10/06 07:45:07;;;;;;;7.07;4.25;;;;;;;;;;13114241;22;20664;-92
2023/10/06 07:50:13;;;;;;;5.35;3.53;;;;;;;;;;13114169;22;20818;-92
2023/10/06 07:55:16;;;;;;;4.80;3.20;;;;;;;;;;13135841;22;20420;-92
2023/10/06 08:00:27;;;;;;;4.97;2.70;;;;;;;;;;13123078;22;20420;-90
2023/10/06 08:05:30;;;;;;;4.78;2.63;;;;;;;;;;13119385;22;20359;-90
2023/10/06 08:10:32;;;;;;;4.35;2.50;;;;;;;;;;13114522;22;20375;-91
2023/10/06 08:15:40;;;;;;;3.90;2.40;;;;;;;;;;13113908;22;20444;-91
2023/10/06 08:20:44;;;;;;;4.00;2.30;;;;;;;;;;13114262;22;21053;-90
2023/10/06 08:25:46;;;;;;;6.13;2.13;;;;;;;;;;13135370;22;20393;-91
2023/10/06 08:30:52;;;;;;;3.65;2.05;;;;;;;;;;13107467;22;20441;-91
2023/10/06 08:35:58;;;;;;;3.95;2.30;;;;;;;;;;13108509;22;20375;-91
2023/10/06 08:41:02;;;;;;;4.28;2.70;;;;;;;;;;13134620;22;20436;-90
2023/10/06 08:46:07;;;;;;;3.67;2.33;;;;;;;;;;13111680;22;20587;-91
2023/10/06 08:51:14;;;;;;;4.20;2.00;;;;;;;;;;13111522;22;21104;-91
2023/10/06 08:56:17;;;;;;;3.78;2.20;;;;;;;;;;13112352;22;20374;-91
2023/10/06 09:01:21;;;;;;;3.95;2.20;;;;;;;;;;13134210;22;20385;-91
2023/10/06 09:06:23;;;;;;;3.65;2.35;;;;;;;;;;13112651;22;20359;-91
2023/10/06 09:11:38;;;;;;;3.60;2.00;;;;;;;;;;13112959;22;21048;-88
2023/10/06 09:16:51;;;;;;;4.30;2.05;;;;;;;;;;13112628;22;20375;-88
2023/10/06 09:22:02;;;;;;;5.28;2.10;;;;;;;;;;13112013;22;20404;-88
2023/10/06 09:27:21;;;;;;;6.13;2.00;;;;;;;;;;13112472;22;20359;-87
2023/10/06 09:32:25;;;;;;;4.68;2.15;;;;;;;;;;13112551;22;20420;-87
2023/10/06 09:37:29;;;;;;;4.17;1.83;;;;;;;;;;13134225;22;20397;-88
2023/10/06 09:42:33;;;;;;;4.13;2.10;;;;;;;;;;13113135;22;20356;-87
2023/10/06 09:47:39;;;;;;;3.65;2.03;;;;;;;;;;13111569;22;20367;-88
2023/10/06 09:52:46;;;;;;;2.90;1.90;;;;;;;;;;13112309;22;20428;-89
2023/10/06 09:57:50;;;;;;;5.20;2.08;;;;;;;;;;13113589;22;20428;-89
2023/10/06 10:02:54;;;;;;;3.20;2.03;;;;;;;;;;13116377;22;20737;-88
2023/10/06 10:07:56;;;;;;;4.18;2.42;;;;;;;;;;13114000;22;20386;-88
2023/10/06 10:13:31;;;;;;;4.40;2.27;;;;;;;;;;13114500;22;20420;-89
2023/10/06 10:18:39;;;;;;;3.60;2.17;;;;;;;;;;13108083;22;20367;-88
2023/10/06 10:23:41;;;;;;;3.67;2.22;;;;;;;;;;13116651;22;20348;-89
2023/10/06 10:28:44;;;;;;;3.30;1.87;;;;;;;;;;13115488;22;20363;-86
2023/10/06 10:33:48;;;;;;;3.05;2.03;;;;;;;;;;13115408;22;20694;-89
2023/10/06 10:39:09;;;;;;;3.58;2.28;;;;;;;;;;13115210;22;20363;-88
2023/10/06 10:44:12;;;;;;;5.20;2.20;;;;;;;;;;13114954;22;21089;-88
2023/10/06 10:49:19;;;;;;;3.70;2.10;;;;;;;;;;13136046;22;20389;-88
2023/10/06 10:54:22;;;;;;;3.88;2.38;;;;;;;;;;13113407;22;20379;-88
2023/10/06 10:59:31;;;;;;;5.97;2.08;;;;;;;;;;13113934;22;20359;-88
2023/10/06 11:04:36;;;;;;;3.20;1.88;;;;;;;;;;13114513;22;20734;-89
2023/10/06 11:09:48;;;;;;;5.90;2.17;;;;;;;;;;13114846;22;20437;-88
2023/10/06 11:14:51;;;;;;;5.20;2.80;;;;;;;;;;13110745;22;20839;-90
2023/10/06 11:20:08;;;;;;;2.50;1.70;;;;;;;;;;13106728;22;20697;-91
2023/10/06 11:25:11;;;;;;;5.10;2.30;;;;;;;;;;13108051;22;20410;-91
2023/10/06 11:30:15;;;;;;;5.38;2.33;;;;;;;;;;13106505;22;20456;-91
2023/10/06 11:35:19;;;;;;;4.57;2.40;;;;;;;;;;13080586;22;20375;-92
2023/10/06 11:40:24;;;;;;;4.60;2.30;;;;;;;;;;13104599;22;20416;-91
2023/10/06 11:45:30;;;;;;;4.50;2.43;;;;;;;;;;13106003;22;20427;-93
2023/10/06 11:50:33;;;;;;;3.97;2.17;;;;;;;;;;13098301;22;21290;-92
2023/10/06 11:55:36;;;;;;;3.38;2.20;;;;;;;;;;13105907;22;20379;-92
2023/10/06 12:00:40;;;;;;;3.93;2.40;;;;;;;;;;13104821;22;20371;-92
2023/10/06 12:05:56;;;;;;;5.47;2.28;;;;;;;;;;13106554;22;20688;-90
2023/10/06 12:11:04;;;;;;;3.40;2.10;;;;;;;;;;13126215;22;20363;-90
2023/10/06 12:16:14;;;;;;;3.25;2.30;;;;;;;;;;13104105;22;20376;-90
2023/10/06 12:21:17;;;;;;;3.67;1.90;;;;;;;;;;13109161;22;20433;-93
2023/10/06 12:26:20;;;;;;;3.95;2.13;;;;;;;;;;13108067;22;20355;-89
2023/10/06 12:31:22;;;;;;;3.15;2.10;;;;;;;;;;13105067;22;20393;-92
2023/10/06 12:36:26;;;;;;;3.60;1.77;;;;;;;;;;13124074;22;20451;-89
2023/10/06 12:41:29;;;;;;;2.73;1.73;;;;;;;;;;13130156;22;20938;-89
2023/10/06 12:46:33;;;;;;;4.10;1.90;;;;;;;;;;13108861;22;20359;-91
2023/10/06 12:51:37;;;;;;;3.47;1.92;;;;;;;;;;13108546;22;21194;-91
2023/10/06 12:56:39;;;;;;;2.90;1.88;;;;;;;;;;13109011;22;20436;-90
2023/10/06 13:01:42;;;;;;;5.03;2.20;;;;;;;;;;13109317;22;20480;-92
2023/10/06 13:06:48;;;;;;;3.88;1.77;;;;;;;;;;13110811;22;20424;-92
2023/10/06 13:11:50;;;;;;;2.77;1.53;;;;;;;;;;13126055;22;20412;-93
2023/10/06 13:16:52;;;;;;;4.63;1.80;;;;;;;;;;13109388;22;20383;-93
2023/10/06 13:21:56;;;;;;;3.05;1.98;;;;;;;;;;13111403;22;20364;-92
2023/10/06 13:26:59;;;;;;;3.13;1.55;;;;;;;;;;13112353;22;20734;-93
2023/10/06 13:32:01;;;;;;;3.35;1.73;;;;;;;;;;13113357;22;20529;-93
2023/10/06 13:37:07;;;;;;;3.20;1.80;;;;;;;;;;13131205;22;20383;-93
2023/10/06 13:42:15;;;;;;;3.50;2.10;;;;;;;;;;13116463;22;20476;-93
2023/10/06 13:47:18;;;;;;;3.33;1.87;;;;;;;;;;13116083;22;20363;-93
2023/10/06 13:52:22;;;;;;;3.92;1.77;;;;;;;;;;13116863;22;20358;-93
2023/10/06 13:57:24;;;;;;;3.03;1.60;;;;;;;;;;13115771;22;20379;-93
2023/10/06 14:02:28;;;;;;;3.00;1.60;;;;;;;;;;13112040;22;20397;-95
2023/10/06 14:07:32;;;;;;;3.30;1.60;;;;;;;;;;13112969;22;20835;-90
2023/10/06 14:12:35;;;;;;;3.47;2.00;;;;;;;;;;13111273;22;20356;-89
2023/10/06 14:17:37;;;;;;;3.30;1.83;;;;;;;;;;13109021;22;20464;-90
2023/10/06 14:22:42;;;;;;;3.45;1.70;;;;;;;;;;13109831;22;20359;-90
2023/10/06 14:27:44;;;;;;;5.87;2.07;;;;;;;;;;13109351;22;20823;-90
2023/10/06 14:33:06;;;;;;;6.47;2.10;;;;;;;;;;13110459;22;20425;-91
2023/10/06 14:48:45;;;;;;;3.58;2.05;;;;;;;;;;13101555;22;20397;-90
2023/10/06 14:53:50;;;;;;;3.30;1.83;;;;;;;;;;13100176;22;20429;-91
2023/10/06 14:58:54;;;;;;;7.38;2.05;;;;;;;;;;13101889;22;20379;-92
2023/10/06 15:03:59;;;;;;;3.85;2.17;;;;;;;;;;13120821;22;20363;-92
2023/10/06 15:09:03;;;;;;;3.17;2.05;;;;;;;;;;13101835;22;21014;-91
2023/10/06 15:14:05;;;;;;;2.77;1.80;;;;;;;;;;13104074;22;20685;-91
2023/10/06 15:19:07;;;;;;;3.50;1.90;;;;;;;;;;13103680;22;20393;-92
2023/10/06 15:24:14;;;;;;;4.18;2.10;;;;;;;;;;13098219;22;20375;-91
2023/10/06 15:29:19;;;;;;;5.00;2.58;;;;;;;;;;13099218;22;20432;-93
2023/10/06 15:34:22;;;;;;;2.95;1.70;;;;;;;;;;13106272;22;20371;-93
2023/10/06 15:39:26;;;;;;;3.35;2.03;;;;;;;;;;13101637;22;20444;-93
2023/10/06 15:44:28;;;;;;;2.55;1.98;;;;;;;;;;13114246;22;20367;-94
2023/10/06 15:49:32;;;;;;;4.57;2.50;;;;;;;;;;13103411;22;20707;-94
2023/10/06 15:54:39;;;;;;;3.55;2.10;;;;;;;;;;13103387;22;20376;-94
2023/10/06 15:59:43;;;;;;;4.83;2.10;;;;;;;;;;13104182;22;20382;-90
2023/10/06 16:04:50;;;;;;;3.80;2.27;;;;;;;;;;13101718;22;20464;-91
2023/10/06 16:09:54;;;;;;;5.18;2.20;;;;;;;;;;13099479;22;20374;-91
2023/10/06 16:14:56;;;;;;;4.55;1.95;;;;;;;;;;13122893;22;20447;-91
2023/10/06 16:19:59;;;;;;;3.90;2.22;;;;;;;;;;13102910;22;20360;-90
2023/10/06 16:25:05;;;;;;;5.82;2.58;;;;;;;;;;13102346;22;20421;-91
2023/10/06 16:30:13;;;;;;;5.85;2.30;;;;;;;;;;13075237;22;20375;-91
2023/10/06 16:35:15;;;;;;;7.07;2.63;;;;;;;;;;13102415;22;20444;-90
2023/10/06 16:40:19;;;;;;;3.70;2.60;;;;;;;;;;13101012;22;20819;-89
2023/10/06 16:45:23;;;;;;;5.40;2.22;;;;;;;;;;13101964;22;20375;-91
2023/10/06 16:50:25;;;;;;;5.32;2.92;;;;;;;;;;13102501;22;20435;-91
2023/10/06 16:55:29;;;;;;;7.10;3.10;;;;;;;;;;13115635;22;20386;-90
2023/10/06 17:00:32;;;;;;;5.32;2.55;;;;;;;;;;13117433;22;20363;-90
2023/10/06 17:05:35;;;;;;;6.32;2.90;;;;;;;;;;13102264;22;20908;-90
2023/10/06 17:10:38;;;;;;;6.85;2.67;;;;;;;;;;13101869;22;20859;-92
2023/10/06 17:15:41;;;;;;;16.57;3.57;;;;;;;;;;13103288;22;20409;-91
2023/10/06 17:20:44;;;;;;;9.85;3.08;;;;;;;;;;13104534;22;20360;-81
2023/10/06 17:25:48;;;;;;;10.55;2.78;;;;;;;;;;13101603;22;20379;-88
2023/10/06 17:30:50;;;;;;;8.75;3.13;;;;;;;;;;13099575;22;20379;-88
2023/10/06 17:35:54;;;;;;;8.45;3.20;;;;;;;;;;13101013;22;20394;-90
2023/10/06 17:40:59;;;;;;;7.17;3.00;;;;;;;;;;13095186;22;20374;-88
2023/10/06 17:46:02;;;;;;;8.10;2.93;;;;;;;;;;13105678;22;20375;-89
2023/10/06 17:51:04;;;;;;;7.75;2.78;;;;;;;;;;13100030;22;20406;-91
2023/10/06 17:56:08;;;;;;;7.90;3.00;;;;;;;;;;13100046;22;20762;-91
2023/10/06 18:01:10;;;;;;;5.10;3.30;;;;;;;;;;13102340;22;20379;-90
2023/10/06 18:06:13;;;;;;;6.63;2.78;;;;;;;;;;13131731;22;20367;-89
2023/10/06 18:11:16;;;;;;;6.28;3.00;;;;;;;;;;13119550;22;23180;-90
2023/10/06 18:16:19;;;;;;;7.00;3.33;;;;;;;;;;13120694;22;20375;-89
2023/10/06 18:21:21;;;;;;;9.00;3.53;;;;;;;;;;13124710;22;20425;-93
2023/10/06 18:26:25;;;;;;;8.63;4.60;;;;;;;;;;13120311;22;20371;-93
2023/10/06 18:31:28;;;;;;;7.20;3.72;;;;;;;;;;13124290;22;20900;-92
2023/10/06 18:36:30;;;;;;;9.02;4.18;;;;;;;;;;13126279;22;20382;-94
2023/10/06 18:41:34;;;;;;;8.70;3.60;;;;;;;;;;13126885;22;20393;-93
2023/10/06 18:46:37;;;;;;;10.53;4.80;;;;;;;;;;13137542;22;20430;-93
2023/10/06 18:51:40;;;;;;;9.18;4.47;;;;;;;;;;13126846;22;20375;-94
2023/10/06 18:56:45;;;;;;;12.30;4.13;;;;;;;;;;13137698;22;20379;-94
2023/10/06 19:01:47;;;;;;;8.83;4.90;;;;;;;;;;13126674;22;20363;-94
2023/10/06 19:06:49;;;;;;;10.68;5.60;;;;;;;;;;13135606;22;20835;-89
2023/10/06 19:11:54;;;;;;;11.07;5.90;;;;;;;;;;13108621;22;20359;-89
2023/10/06 19:16:57;;;;;;;11.05;5.65;;;;;;;;;;13112061;22;20383;-91
2023/10/06 19:21:59;;;;;;;11.10;5.75;;;;;;;;;;13108334;22;20371;-90
2023/10/06 19:27:03;;;;;;;9.07;5.53;;;;;;;;;;13112562;22;20375;-90
2023/10/06 19:32:06;;;;;;;12.00;7.00;;;;;;;;;;13084327;22;20379;-91
2023/10/06 19:37:10;;;;;;;8.73;5.10;;;;;;;;;;13111315;22;20432;-90
2023/10/06 19:42:14;;;;;;;8.90;4.73;;;;;;;;;;13108426;22;20436;-90
2023/10/06 19:47:17;;;;;;;7.75;4.47;;;;;;;;;;13108873;22;20911;-90
2023/10/06 19:52:21;;;;;;;8.63;4.20;;;;;;;;;;13123506;22;20367;-90
2023/10/06 19:57:25;;;;;;;7.63;4.10;;;;;;;;;;13111500;22;20473;-90
2023/10/06 20:02:28;;;;;;;7.60;4.40;;;;;;;;;;13109916;22;20383;-89
2023/10/06 20:07:33;;;;;;;8.25;5.00;;;;;;;;;;13112101;22;20683;-90
2023/10/06 20:12:37;;;;;;;9.10;4.73;;;;;;;;;;13111161;22;20375;-89
2023/10/06 20:17:40;;;;;;;6.70;4.10;;;;;;;;;;13131069;22;20728;-89
2023/10/06 20:22:42;;;;;;;7.15;4.45;;;;;;;;;;13120978;22;20819;-95
2023/10/06 20:27:47;;;;;;;6.93;4.60;;;;;;;;;;13126915;22;20375;-95
2023/10/06 20:32:52;;;;;;;8.80;4.70;;;;;;;;;;13137293;22;20371;-91
2023/10/06 20:37:55;;;;;;;10.67;5.23;;;;;;;;;;13134266;22;20503;-96
2023/10/06 20:43:06;;;;;;;6.67;4.63;;;;;;;;;;13127115;22;20421;-95
2023/10/06 20:48:09;;;;;;;7.93;4.70;;;;;;;;;;13127213;22;20428;-95
2023/10/06 20:53:11;;;;;;;8.93;4.82;;;;;;;;;;13122316;22;20432;-92
2023/10/06 20:58:15;;;;;;;7.00;4.72;;;;;;;;;;13120301;22;20704;-93
2023/10/06 21:03:18;;;;;;;9.77;5.00;;;;;;;;;;13119600;22;20444;-93
2023/10/06 21:08:20;;;;;;;7.97;4.57;;;;;;;;;;13123811;22;20367;-92
2023/10/06 21:13:24;;;;;;;6.53;4.10;;;;;;;;;;13124345;22;20371;-94
2023/10/06 21:18:26;;;;;;;8.07;4.03;;;;;;;;;;13125896;22;20835;-93
2023/10/06 21:23:29;;;;;;;7.00;4.10;;;;;;;;;;13125157;22;20371;-93
2023/10/06 21:28:33;;;;;;;6.03;3.60;;;;;;;;;;13126321;22;20683;-93
2023/10/06 21:33:36;;;;;;;7.18;4.32;;;;;;;;;;13131955;22;20749;-94
2023/10/06 21:38:38;;;;;;;7.28;4.03;;;;;;;;;;13125997;22;20383;-93
2023/10/06 21:43:41;;;;;;;8.90;3.67;;;;;;;;;;13126448;22;20401;-93
2023/10/06 21:48:45;;;;;;;6.65;3.80;;;;;;;;;;13126799;22;20383;-94
2023/10/06 21:53:47;;;;;;;5.90;3.43;;;;;;;;;;13127241;22;20379;-93
2023/10/06 21:58:51;;;;;;;5.07;3.27;;;;;;;;;;13147110;22;20408;-94
2023/10/06 22:03:54;;;;;;;6.10;3.27;;;;;;;;;;13131016;22;20371;-94
2023/10/06 22:08:56;;;;;;;8.57;4.13;;;;;;;;;;13129566;22;20805;-94
2023/10/06 22:14:00;;;;;;;6.72;3.75;;;;;;;;;;13131589;22;20888;-93
2023/10/06 22:19:02;;;;;;;8.65;4.38;;;;;;;;;;13131992;22;20836;-94
2023/10/06 22:24:05;;;;;;;9.20;4.33;;;;;;;;;;13132363;22;20381;-94
2023/10/06 22:29:11;;;;;;;6.72;4.18;;;;;;;;;;13135226;22;20397;-94
2023/10/06 22:34:14;;;;;;;8.10;4.20;;;;;;;;;;13137515;22;20355;-93
2023/10/06 22:39:19;;;;;;;6.13;3.83;;;;;;;;;;13135823;22;20409;-94
2023/10/06 22:44:23;;;;;;;5.25;3.75;;;;;;;;;;13137156;22;20355;-93
2023/10/06 22:49:25;;;;;;;6.03;3.88;;;;;;;;;;13144076;22;20347;-93
2023/10/06 22:54:27;;;;;;;7.43;4.30;;;;;;;;;;13149485;22;20388;-94
2023/10/06 22:59:31;;;;;;;8.00;4.10;;;;;;;;;;13103189;22;20383;-84
2023/10/06 23:04:33;;;;;;;8.57;4.38;;;;;;;;;;12977295;22;20371;-85
2023/10/06 23:09:35;;;;;;;7.37;4.10;;;;;;;;;;12978845;22;20392;-85
2023/10/06 23:14:42;;;;;;;8.30;4.43;;;;;;;;;;12982285;22;20366;-85
2023/10/06 23:19:44;;;;;;;6.15;3.97;;;;;;;;;;13012693;22;20433;-86
2023/10/06 23:24:49;;;;;;;6.70;4.07;;;;;;;;;;13003443;22;20428;-84
2023/10/06 23:29:55;;;;;;;6.53;4.03;;;;;;;;;;12979108;22;20394;-85
2023/10/06 23:34:57;;;;;;;6.95;4.22;;;;;;;;;;12978935;22;20812;-86
2023/10/06 23:39:59;;;;;;;6.13;3.97;;;;;;;;;;12978558;22;20452;-85
2023/10/06 23:45:14;;;;;;;8.65;4.75;;;;;;;;;;12999257;22;20736;-86
2023/10/06 23:50:17;;;;;;;6.43;4.30;;;;;;;;;;12978605;22;20460;-85
2023/10/06 23:55:21;;;;;;;7.20;4.03;;;;;;;;;;12985414;22;20996;-85
